sensor_id;sensor_type;location;lat;lon;timestamp;P1;durP1;ratioP1;P2;durP2;ratioP2
68315;SDS011;55508;54.368;18.406;2023-04-25T00:00:52;7.40;;;6.90;;
68315;SDS011;55508;54.368;18.406;2023-04-25T00:03:19;7.95;;;7.28;;
68315;SDS011;55508;54.368;18.406;2023-04-25T00:05:47;7.53;;;6.93;;
68315;SDS011;55508;54.368;18.406;2023-04-25T00:08:15;7.55;;;6.82;;
68315;SDS011;55508;54.368;18.406;2023-04-25T00:10:42;7.20;;;6.72;;
68315;SDS011;55508;54.368;18.406;2023-04-25T00:13:09;8.95;;;8.13;;
68315;SDS011;55508;54.368;18.406;2023-04-25T00:15:37;8.45;;;7.82;;
68315;SDS011;55508;54.368;18.406;2023-04-25T00:18:05;7.50;;;6.90;;
68315;SDS011;55508;54.368;18.406;2023-04-25T00:20:32;7.55;;;6.95;;
68315;SDS011;55508;54.368;18.406;2023-04-25T00:22:59;8.95;;;6.78;;
68315;SDS011;55508;54.368;18.406;2023-04-25T00:25:26;7.57;;;6.97;;
68315;SDS011;55508;54.368;18.406;2023-04-25T00:27:53;7.38;;;6.88;;
68315;SDS011;55508;54.368;18.406;2023-04-25T00:30:20;7.85;;;7.25;;
68315;SDS011;55508;54.368;18.406;2023-04-25T00:32:47;7.80;;;7.25;;
68315;SDS011;55508;54.368;18.406;2023-04-25T00:35:15;7.63;;;7.03;;
68315;SDS011;55508;54.368;18.406;2023-04-25T00:37:42;8.02;;;7.18;;
68315;SDS011;55508;54.368;18.406;2023-04-25T00:40:09;7.55;;;7.05;;
68315;SDS011;55508;54.368;18.406;2023-04-25T00:42:36;7.38;;;6.88;;
68315;SDS011;55508;54.368;18.406;2023-04-25T00:45:04;8.10;;;7.50;;
68315;SDS011;55508;54.368;18.406;2023-04-25T00:47:32;6.80;;;6.40;;
68315;SDS011;55508;54.368;18.406;2023-04-25T00:49:59;7.80;;;7.10;;
68315;SDS011;55508;54.368;18.406;2023-04-25T00:52:26;8.05;;;7.20;;
68315;SDS011;55508;54.368;18.406;2023-04-25T00:54:53;8.45;;;7.88;;
68315;SDS011;55508;54.368;18.406;2023-04-25T00:57:21;9.05;;;8.45;;
68315;SDS011;55508;54.368;18.406;2023-04-25T00:59:47;8.93;;;8.13;;
68315;SDS011;55508;54.368;18.406;2023-04-25T01:02:18;8.60;;;7.90;;
68315;SDS011;55508;54.368;18.406;2023-04-25T01:04:46;8.50;;;7.90;;
68315;SDS011;55508;54.368;18.406;2023-04-25T01:07:14;8.77;;;8.07;;
68315;SDS011;55508;54.368;18.406;2023-04-25T01:09:41;8.85;;;8.07;;
68315;SDS011;55508;54.368;18.406;2023-04-25T01:12:09;8.68;;;7.80;;
68315;SDS011;55508;54.368;18.406;2023-04-25T01:14:36;9.05;;;8.35;;
68315;SDS011;55508;54.368;18.406;2023-04-25T01:17:04;9.48;;;8.65;;
68315;SDS011;55508;54.368;18.406;2023-04-25T01:19:31;9.15;;;8.45;;
68315;SDS011;55508;54.368;18.406;2023-04-25T01:21:58;8.30;;;7.80;;
68315;SDS011;55508;54.368;18.406;2023-04-25T01:24:26;9.07;;;8.27;;
68315;SDS011;55508;54.368;18.406;2023-04-25T01:26:55;9.93;;;9.02;;
68315;SDS011;55508;54.368;18.406;2023-04-25T01:29:23;9.65;;;8.77;;
68315;SDS011;55508;54.368;18.406;2023-04-25T01:31:51;9.27;;;8.50;;
68315;SDS011;55508;54.368;18.406;2023-04-25T01:34:19;9.10;;;8.50;;
68315;SDS011;55508;54.368;18.406;2023-04-25T01:36:47;9.27;;;8.48;;
68315;SDS011;55508;54.368;18.406;2023-04-25T01:39:16;8.93;;;8.30;;
68315;SDS011;55508;54.368;18.406;2023-04-25T01:41:44;9.23;;;8.63;;
68315;SDS011;55508;54.368;18.406;2023-04-25T01:44:12;9.35;;;8.65;;
68315;SDS011;55508;54.368;18.406;2023-04-25T01:46:40;10.65;;;9.48;;
68315;SDS011;55508;54.368;18.406;2023-04-25T01:49:07;9.52;;;8.73;;
68315;SDS011;55508;54.368;18.406;2023-04-25T01:51:34;10.48;;;9.48;;
68315;SDS011;55508;54.368;18.406;2023-04-25T01:54:02;10.43;;;9.48;;
68315;SDS011;55508;54.368;18.406;2023-04-25T01:56:32;9.60;;;8.90;;
68315;SDS011;55508;54.368;18.406;2023-04-25T01:59:00;9.80;;;9.10;;
68315;SDS011;55508;54.368;18.406;2023-04-25T02:01:47;10.25;;;9.45;;
68315;SDS011;55508;54.368;18.406;2023-04-25T02:04:21;10.30;;;9.40;;
68315;SDS011;55508;54.368;18.406;2023-04-25T02:06:48;11.25;;;10.35;;
68315;SDS011;55508;54.368;18.406;2023-04-25T02:09:15;10.40;;;9.50;;
68315;SDS011;55508;54.368;18.406;2023-04-25T02:11:47;10.02;;;9.18;;
68315;SDS011;55508;54.368;18.406;2023-04-25T02:14:24;10.10;;;9.50;;
68315;SDS011;55508;54.368;18.406;2023-04-25T02:17:11;10.40;;;9.70;;
68315;SDS011;55508;54.368;18.406;2023-04-25T02:19:39;10.73;;;9.93;;
68315;SDS011;55508;54.368;18.406;2023-04-25T02:22:06;9.55;;;8.95;;
68315;SDS011;55508;54.368;18.406;2023-04-25T02:24:33;11.32;;;10.32;;
68315;SDS011;55508;54.368;18.406;2023-04-25T02:27:01;10.57;;;9.80;;
68315;SDS011;55508;54.368;18.406;2023-04-25T02:29:29;10.93;;;10.00;;
68315;SDS011;55508;54.368;18.406;2023-04-25T02:31:56;10.90;;;10.05;;
68315;SDS011;55508;54.368;18.406;2023-04-25T02:34:25;10.45;;;9.75;;
68315;SDS011;55508;54.368;18.406;2023-04-25T02:36:52;10.27;;;9.40;;
68315;SDS011;55508;54.368;18.406;2023-04-25T02:39:18;9.88;;;9.18;;
68315;SDS011;55508;54.368;18.406;2023-04-25T02:41:45;9.68;;;9.07;;
68315;SDS011;55508;54.368;18.406;2023-04-25T02:44:12;9.40;;;8.70;;
68315;SDS011;55508;54.368;18.406;2023-04-25T02:46:39;9.07;;;8.27;;
68315;SDS011;55508;54.368;18.406;2023-04-25T02:49:06;8.00;;;7.50;;
68315;SDS011;55508;54.368;18.406;2023-04-25T02:51:34;7.88;;;7.38;;
68315;SDS011;55508;54.368;18.406;2023-04-25T02:54:01;7.90;;;7.38;;
68315;SDS011;55508;54.368;18.406;2023-04-25T02:56:31;7.78;;;7.28;;
68315;SDS011;55508;54.368;18.406;2023-04-25T02:58:58;7.53;;;7.10;;
68315;SDS011;55508;54.368;18.406;2023-04-25T03:01:26;10.07;;;7.55;;
68315;SDS011;55508;54.368;18.406;2023-04-25T03:03:53;7.07;;;6.57;;
68315;SDS011;55508;54.368;18.406;2023-04-25T03:06:20;7.85;;;7.35;;
68315;SDS011;55508;54.368;18.406;2023-04-25T03:08:47;7.35;;;6.90;;
68315;SDS011;55508;54.368;18.406;2023-04-25T03:11:14;7.43;;;7.03;;
68315;SDS011;55508;54.368;18.406;2023-04-25T03:13:42;8.32;;;7.72;;
68315;SDS011;55508;54.368;18.406;2023-04-25T03:16:10;7.97;;;7.38;;
68315;SDS011;55508;54.368;18.406;2023-04-25T03:18:37;7.82;;;7.32;;
68315;SDS011;55508;54.368;18.406;2023-04-25T03:21:04;7.95;;;7.43;;
68315;SDS011;55508;54.368;18.406;2023-04-25T03:23:31;7.50;;;7.10;;
68315;SDS011;55508;54.368;18.406;2023-04-25T03:25:58;8.00;;;7.40;;
68315;SDS011;55508;54.368;18.406;2023-04-25T03:28:25;6.97;;;6.57;;
68315;SDS011;55508;54.368;18.406;2023-04-25T03:30:53;7.57;;;7.07;;
68315;SDS011;55508;54.368;18.406;2023-04-25T03:33:20;7.25;;;6.85;;
68315;SDS011;55508;54.368;18.406;2023-04-25T03:35:47;7.25;;;6.85;;
68315;SDS011;55508;54.368;18.406;2023-04-25T03:38:14;7.28;;;6.88;;
68315;SDS011;55508;54.368;18.406;2023-04-25T03:40:41;6.85;;;6.35;;
68315;SDS011;55508;54.368;18.406;2023-04-25T03:43:21;7.78;;;7.28;;
68315;SDS011;55508;54.368;18.406;2023-04-25T03:45:54;7.25;;;6.85;;
68315;SDS011;55508;54.368;18.406;2023-04-25T03:48:22;8.13;;;7.47;;
68315;SDS011;55508;54.368;18.406;2023-04-25T03:50:52;8.40;;;7.60;;
68315;SDS011;55508;54.368;18.406;2023-04-25T03:53:20;8.10;;;7.50;;
68315;SDS011;55508;54.368;18.406;2023-04-25T03:56:07;8.10;;;7.50;;
68315;SDS011;55508;54.368;18.406;2023-04-25T03:58:36;6.93;;;6.30;;
68315;SDS011;55508;54.368;18.406;2023-04-25T04:01:03;7.32;;;6.93;;
68315;SDS011;55508;54.368;18.406;2023-04-25T04:03:36;7.78;;;7.22;;
68315;SDS011;55508;54.368;18.406;2023-04-25T04:06:04;7.57;;;7.18;;
68315;SDS011;55508;54.368;18.406;2023-04-25T04:08:36;7.25;;;6.82;;
68315;SDS011;55508;54.368;18.406;2023-04-25T04:11:03;7.28;;;6.70;;
68315;SDS011;55508;54.368;18.406;2023-04-25T04:13:30;8.30;;;7.03;;
68315;SDS011;55508;54.368;18.406;2023-04-25T04:15:58;7.10;;;6.60;;
68315;SDS011;55508;54.368;18.406;2023-04-25T04:18:25;8.00;;;7.25;;
68315;SDS011;55508;54.368;18.406;2023-04-25T04:20:54;7.30;;;6.90;;
68315;SDS011;55508;54.368;18.406;2023-04-25T04:23:22;6.97;;;6.38;;
68315;SDS011;55508;54.368;18.406;2023-04-25T04:25:50;8.25;;;7.55;;
68315;SDS011;55508;54.368;18.406;2023-04-25T04:28:27;7.93;;;7.40;;
68315;SDS011;55508;54.368;18.406;2023-04-25T04:31:00;7.32;;;6.80;;
68315;SDS011;55508;54.368;18.406;2023-04-25T04:33:29;7.80;;;7.30;;
68315;SDS011;55508;54.368;18.406;2023-04-25T04:36:01;7.40;;;6.90;;
68315;SDS011;55508;54.368;18.406;2023-04-25T04:38:29;8.55;;;7.60;;
68315;SDS011;55508;54.368;18.406;2023-04-25T04:41:00;6.63;;;6.22;;
68315;SDS011;55508;54.368;18.406;2023-04-25T04:43:46;7.25;;;6.55;;
68315;SDS011;55508;54.368;18.406;2023-04-25T04:46:31;7.75;;;7.10;;
68315;SDS011;55508;54.368;18.406;2023-04-25T04:49:24;7.40;;;7.00;;
68315;SDS011;55508;54.368;18.406;2023-04-25T04:52:05;7.50;;;6.97;;
68315;SDS011;55508;54.368;18.406;2023-04-25T04:54:52;7.13;;;6.63;;
68315;SDS011;55508;54.368;18.406;2023-04-25T04:57:39;7.55;;;7.03;;
68315;SDS011;55508;54.368;18.406;2023-04-25T05:00:26;7.63;;;7.05;;
68315;SDS011;55508;54.368;18.406;2023-04-25T05:03:15;8.07;;;7.57;;
68315;SDS011;55508;54.368;18.406;2023-04-25T05:06:00;7.57;;;7.00;;
68315;SDS011;55508;54.368;18.406;2023-04-25T05:08:38;7.35;;;6.75;;
68315;SDS011;55508;54.368;18.406;2023-04-25T05:11:15;8.27;;;7.68;;
68315;SDS011;55508;54.368;18.406;2023-04-25T05:14:01;7.80;;;7.20;;
68315;SDS011;55508;54.368;18.406;2023-04-25T05:16:43;7.85;;;7.15;;
68315;SDS011;55508;54.368;18.406;2023-04-25T05:19:30;8.20;;;7.60;;
68315;SDS011;55508;54.368;18.406;2023-04-25T05:22:15;7.43;;;6.90;;
68315;SDS011;55508;54.368;18.406;2023-04-25T05:25:02;7.13;;;6.43;;
68315;SDS011;55508;54.368;18.406;2023-04-25T05:27:48;7.03;;;5.57;;
68315;SDS011;55508;54.368;18.406;2023-04-25T05:30:29;7.75;;;7.03;;
68315;SDS011;55508;54.368;18.406;2023-04-25T05:33:16;5.70;;;5.30;;
68315;SDS011;55508;54.368;18.406;2023-04-25T05:35:44;6.40;;;5.57;;
68315;SDS011;55508;54.368;18.406;2023-04-25T05:38:11;6.65;;;6.05;;
68315;SDS011;55508;54.368;18.406;2023-04-25T05:40:58;8.35;;;5.28;;
68315;SDS011;55508;54.368;18.406;2023-04-25T05:43:42;5.53;;;5.13;;
68315;SDS011;55508;54.368;18.406;2023-04-25T05:46:22;5.63;;;5.13;;
68315;SDS011;55508;54.368;18.406;2023-04-25T05:49:09;6.20;;;5.60;;
68315;SDS011;55508;54.368;18.406;2023-04-25T05:51:56;5.38;;;4.88;;
68315;SDS011;55508;54.368;18.406;2023-04-25T05:54:43;6.30;;;5.15;;
68315;SDS011;55508;54.368;18.406;2023-04-25T05:57:18;5.47;;;4.97;;
68315;SDS011;55508;54.368;18.406;2023-04-25T05:59:49;6.15;;;5.55;;
68315;SDS011;55508;54.368;18.406;2023-04-25T06:02:17;6.10;;;5.70;;
68315;SDS011;55508;54.368;18.406;2023-04-25T06:04:45;8.98;;;7.15;;
68315;SDS011;55508;54.368;18.406;2023-04-25T06:07:12;11.75;;;9.38;;
68315;SDS011;55508;54.368;18.406;2023-04-25T06:09:40;11.00;;;9.60;;
68315;SDS011;55508;54.368;18.406;2023-04-25T06:12:08;7.03;;;6.43;;
68315;SDS011;55508;54.368;18.406;2023-04-25T06:14:35;7.32;;;6.80;;
68315;SDS011;55508;54.368;18.406;2023-04-25T06:17:02;7.82;;;7.00;;
68315;SDS011;55508;54.368;18.406;2023-04-25T06:19:32;5.97;;;5.43;;
68315;SDS011;55508;54.368;18.406;2023-04-25T06:21:59;6.85;;;6.25;;
68315;SDS011;55508;54.368;18.406;2023-04-25T06:24:27;7.43;;;5.90;;
68315;SDS011;55508;54.368;18.406;2023-04-25T06:26:54;6.55;;;5.93;;
68315;SDS011;55508;54.368;18.406;2023-04-25T06:29:21;6.80;;;6.18;;
68315;SDS011;55508;54.368;18.406;2023-04-25T06:31:48;7.85;;;7.15;;
68315;SDS011;55508;54.368;18.406;2023-04-25T06:34:16;7.97;;;7.10;;
68315;SDS011;55508;54.368;18.406;2023-04-25T06:36:44;8.10;;;7.30;;
68315;SDS011;55508;54.368;18.406;2023-04-25T06:39:14;7.07;;;6.40;;
68315;SDS011;55508;54.368;18.406;2023-04-25T06:41:41;7.47;;;6.53;;
68315;SDS011;55508;54.368;18.406;2023-04-25T06:44:27;7.88;;;6.10;;
68315;SDS011;55508;54.368;18.406;2023-04-25T06:46:56;6.10;;;5.50;;
68315;SDS011;55508;54.368;18.406;2023-04-25T06:49:23;5.85;;;5.32;;
68315;SDS011;55508;54.368;18.406;2023-04-25T06:51:50;7.53;;;6.72;;
68315;SDS011;55508;54.368;18.406;2023-04-25T06:54:17;6.10;;;5.60;;
68315;SDS011;55508;54.368;18.406;2023-04-25T06:56:55;6.53;;;5.35;;
68315;SDS011;55508;54.368;18.406;2023-04-25T06:59:22;4.85;;;4.50;;
68315;SDS011;55508;54.368;18.406;2023-04-25T07:01:50;5.82;;;5.32;;
68315;SDS011;55508;54.368;18.406;2023-04-25T07:04:20;4.35;;;4.05;;
68315;SDS011;55508;54.368;18.406;2023-04-25T07:06:51;5.57;;;4.22;;
68315;SDS011;55508;54.368;18.406;2023-04-25T07:09:25;9.55;;;7.50;;
68315;SDS011;55508;54.368;18.406;2023-04-25T07:11:53;4.28;;;3.83;;
68315;SDS011;55508;54.368;18.406;2023-04-25T07:14:20;3.53;;;2.97;;
68315;SDS011;55508;54.368;18.406;2023-04-25T07:16:47;2.75;;;2.50;;
68315;SDS011;55508;54.368;18.406;2023-04-25T07:19:15;2.40;;;2.20;;
68315;SDS011;55508;54.368;18.406;2023-04-25T07:21:42;2.10;;;1.90;;
68315;SDS011;55508;54.368;18.406;2023-04-25T07:24:10;2.78;;;1.67;;
68315;SDS011;55508;54.368;18.406;2023-04-25T07:26:41;2.10;;;1.90;;
68315;SDS011;55508;54.368;18.406;2023-04-25T07:29:28;2.17;;;1.83;;
68315;SDS011;55508;54.368;18.406;2023-04-25T07:31:58;2.95;;;2.08;;
68315;SDS011;55508;54.368;18.406;2023-04-25T07:34:25;3.25;;;2.85;;
68315;SDS011;55508;54.368;18.406;2023-04-25T07:36:53;2.13;;;1.90;;
68315;SDS011;55508;54.368;18.406;2023-04-25T07:39:22;3.13;;;1.98;;
68315;SDS011;55508;54.368;18.406;2023-04-25T07:41:50;1.88;;;1.77;;
68315;SDS011;55508;54.368;18.406;2023-04-25T07:44:24;2.65;;;2.35;;
68315;SDS011;55508;54.368;18.406;2023-04-25T07:46:52;2.80;;;2.53;;
68315;SDS011;55508;54.368;18.406;2023-04-25T07:49:20;2.47;;;2.13;;
68315;SDS011;55508;54.368;18.406;2023-04-25T07:51:48;2.65;;;1.95;;
68315;SDS011;55508;54.368;18.406;2023-04-25T07:54:18;2.00;;;1.60;;
68315;SDS011;55508;54.368;18.406;2023-04-25T07:56:50;1.17;;;1.10;;
68315;SDS011;55508;54.368;18.406;2023-04-25T07:59:24;1.65;;;1.40;;
68315;SDS011;55508;54.368;18.406;2023-04-25T08:01:56;1.95;;;1.50;;
68315;SDS011;55508;54.368;18.406;2023-04-25T08:04:24;1.55;;;1.45;;
68315;SDS011;55508;54.368;18.406;2023-04-25T08:06:57;1.60;;;1.50;;
68315;SDS011;55508;54.368;18.406;2023-04-25T08:09:28;2.70;;;2.22;;
68315;SDS011;55508;54.368;18.406;2023-04-25T08:11:56;2.47;;;2.28;;
68315;SDS011;55508;54.368;18.406;2023-04-25T08:14:28;2.72;;;1.77;;
68315;SDS011;55508;54.368;18.406;2023-04-25T08:17:03;2.47;;;2.25;;
68315;SDS011;55508;54.368;18.406;2023-04-25T08:19:31;3.40;;;2.60;;
68315;SDS011;55508;54.368;18.406;2023-04-25T08:22:00;3.20;;;1.55;;
68315;SDS011;55508;54.368;18.406;2023-04-25T08:24:35;2.83;;;1.40;;
68315;SDS011;55508;54.368;18.406;2023-04-25T08:27:07;2.45;;;1.52;;
68315;SDS011;55508;54.368;18.406;2023-04-25T08:29:35;1.73;;;1.63;;
68315;SDS011;55508;54.368;18.406;2023-04-25T08:32:02;2.78;;;2.10;;
68315;SDS011;55508;54.368;18.406;2023-04-25T08:34:31;1.83;;;1.30;;
68315;SDS011;55508;54.368;18.406;2023-04-25T08:37:03;1.45;;;1.30;;
68315;SDS011;55508;54.368;18.406;2023-04-25T08:39:48;1.35;;;1.05;;
68315;SDS011;55508;54.368;18.406;2023-04-25T08:44:57;1.92;;;1.73;;
68315;SDS011;55508;54.368;18.406;2023-04-25T08:47:31;3.00;;;1.63;;
68315;SDS011;55508;54.368;18.406;2023-04-25T08:50:02;1.90;;;1.80;;
68315;SDS011;55508;54.368;18.406;2023-04-25T08:52:30;3.45;;;1.48;;
68315;SDS011;55508;54.368;18.406;2023-04-25T08:55:02;2.10;;;1.90;;
68315;SDS011;55508;54.368;18.406;2023-04-25T08:57:32;2.00;;;1.90;;
68315;SDS011;55508;54.368;18.406;2023-04-25T09:00:01;2.90;;;1.75;;
68315;SDS011;55508;54.368;18.406;2023-04-25T09:02:34;2.25;;;1.40;;
68315;SDS011;55508;54.368;18.406;2023-04-25T09:05:02;2.90;;;1.75;;
68315;SDS011;55508;54.368;18.406;2023-04-25T09:07:30;1.73;;;1.63;;
68315;SDS011;55508;54.368;18.406;2023-04-25T09:09:58;1.80;;;1.70;;
68315;SDS011;55508;54.368;18.406;2023-04-25T09:12:30;1.63;;;1.52;;
68315;SDS011;55508;54.368;18.406;2023-04-25T09:15:03;2.80;;;1.63;;
68315;SDS011;55508;54.368;18.406;2023-04-25T09:17:55;2.10;;;1.63;;
68315;SDS011;55508;54.368;18.406;2023-04-25T09:20:31;2.80;;;1.83;;
68315;SDS011;55508;54.368;18.406;2023-04-25T09:23:03;2.40;;;1.90;;
68315;SDS011;55508;54.368;18.406;2023-04-25T09:25:36;2.17;;;1.98;;
68315;SDS011;55508;54.368;18.406;2023-04-25T09:28:08;2.00;;;1.90;;
68315;SDS011;55508;54.368;18.406;2023-04-25T09:30:36;2.30;;;2.10;;
68315;SDS011;55508;54.368;18.406;2023-04-25T09:33:27;1.60;;;1.50;;
68315;SDS011;55508;54.368;18.406;2023-04-25T09:36:05;2.00;;;1.80;;
68315;SDS011;55508;54.368;18.406;2023-04-25T09:38:45;2.17;;;1.80;;
68315;SDS011;55508;54.368;18.406;2023-04-25T09:41:24;1.80;;;1.70;;
68315;SDS011;55508;54.368;18.406;2023-04-25T09:43:56;1.92;;;1.77;;
68315;SDS011;55508;54.368;18.406;2023-04-25T09:46:33;1.80;;;1.70;;
68315;SDS011;55508;54.368;18.406;2023-04-25T09:49:07;1.35;;;1.00;;
68315;SDS011;55508;54.368;18.406;2023-04-25T09:51:53;2.15;;;1.15;;
68315;SDS011;55508;54.368;18.406;2023-04-25T09:54:28;1.10;;;1.00;;
68315;SDS011;55508;54.368;18.406;2023-04-25T09:57:11;1.45;;;1.35;;
68315;SDS011;55508;54.368;18.406;2023-04-25T09:59:47;3.40;;;1.48;;
68315;SDS011;55508;54.368;18.406;2023-04-25T10:02:17;2.15;;;1.50;;
68315;SDS011;55508;54.368;18.406;2023-04-25T10:04:52;1.38;;;1.27;;
68315;SDS011;55508;54.368;18.406;2023-04-25T10:07:33;2.50;;;1.38;;
68315;SDS011;55508;54.368;18.406;2023-04-25T10:10:01;1.92;;;1.58;;
68315;SDS011;55508;54.368;18.406;2023-04-25T10:12:31;2.17;;;1.70;;
68315;SDS011;55508;54.368;18.406;2023-04-25T10:15:00;5.45;;;1.85;;
68315;SDS011;55508;54.368;18.406;2023-04-25T10:17:29;2.10;;;1.90;;
68315;SDS011;55508;54.368;18.406;2023-04-25T10:19:58;2.53;;;1.38;;
68315;SDS011;55508;54.368;18.406;2023-04-25T10:22:38;1.85;;;1.45;;
68315;SDS011;55508;54.368;18.406;2023-04-25T10:25:08;2.88;;;1.50;;
68315;SDS011;55508;54.368;18.406;2023-04-25T10:27:35;2.88;;;1.40;;
68315;SDS011;55508;54.368;18.406;2023-04-25T10:30:04;1.40;;;1.30;;
68315;SDS011;55508;54.368;18.406;2023-04-25T10:32:36;1.75;;;1.52;;
68315;SDS011;55508;54.368;18.406;2023-04-25T10:35:16;1.10;;;1.05;;
68315;SDS011;55508;54.368;18.406;2023-04-25T10:40:35;1.50;;;1.40;;
68315;SDS011;55508;54.368;18.406;2023-04-25T10:46:13;1.50;;;1.05;;
68315;SDS011;55508;54.368;18.406;2023-04-25T10:48:52;2.65;;;1.55;;
68315;SDS011;55508;54.368;18.406;2023-04-25T10:51:27;2.08;;;1.70;;
68315;SDS011;55508;54.368;18.406;2023-04-25T10:54:16;3.22;;;1.60;;
68315;SDS011;55508;54.368;18.406;2023-04-25T10:56:44;2.10;;;1.70;;
68315;SDS011;55508;54.368;18.406;2023-04-25T10:59:12;1.80;;;1.70;;
68315;SDS011;55508;54.368;18.406;2023-04-25T11:01:44;2.03;;;1.80;;
68315;SDS011;55508;54.368;18.406;2023-04-25T11:04:24;3.47;;;1.70;;
68315;SDS011;55508;54.368;18.406;2023-04-25T11:09:50;1.73;;;1.60;;
68315;SDS011;55508;54.368;18.406;2023-04-25T11:12:17;2.03;;;1.70;;
68315;SDS011;55508;54.368;18.406;2023-04-25T11:14:44;2.13;;;1.50;;
68315;SDS011;55508;54.368;18.406;2023-04-25T11:17:12;2.25;;;1.70;;
68315;SDS011;55508;54.368;18.406;2023-04-25T11:19:40;1.67;;;1.52;;
68315;SDS011;55508;54.368;18.406;2023-04-25T11:22:07;5.75;;;3.58;;
68315;SDS011;55508;54.368;18.406;2023-04-25T11:24:35;3.95;;;2.75;;
68315;SDS011;55508;54.368;18.406;2023-04-25T11:27:03;2.35;;;1.80;;
68315;SDS011;55508;54.368;18.406;2023-04-25T11:29:31;5.75;;;2.33;;
68315;SDS011;55508;54.368;18.406;2023-04-25T11:31:58;2.13;;;1.83;;
68315;SDS011;55508;54.368;18.406;2023-04-25T11:34:28;3.85;;;2.88;;
68315;SDS011;55508;54.368;18.406;2023-04-25T11:39:27;4.72;;;3.45;;
68315;SDS011;55508;54.368;18.406;2023-04-25T11:41:55;4.90;;;4.40;;
68315;SDS011;55508;54.368;18.406;2023-04-25T11:44:22;3.90;;;2.05;;
68315;SDS011;55508;54.368;18.406;2023-04-25T11:46:49;4.35;;;2.17;;
68315;SDS011;55508;54.368;18.406;2023-04-25T11:49:16;3.50;;;2.42;;
68315;SDS011;55508;54.368;18.406;2023-04-25T11:51:47;3.80;;;2.30;;
68315;SDS011;55508;54.368;18.406;2023-04-25T11:54:15;3.22;;;2.33;;
68315;SDS011;55508;54.368;18.406;2023-04-25T11:56:43;4.75;;;2.58;;
68315;SDS011;55508;54.368;18.406;2023-04-25T11:59:11;3.33;;;2.50;;
68315;SDS011;55508;54.368;18.406;2023-04-25T12:01:41;4.13;;;3.00;;
68315;SDS011;55508;54.368;18.406;2023-04-25T12:04:19;6.50;;;3.97;;
68315;SDS011;55508;54.368;18.406;2023-04-25T12:06:48;9.77;;;6.50;;
68315;SDS011;55508;54.368;18.406;2023-04-25T12:09:21;5.50;;;4.50;;
68315;SDS011;55508;54.368;18.406;2023-04-25T12:11:55;24.60;;;16.85;;
68315;SDS011;55508;54.368;18.406;2023-04-25T12:14:23;5.63;;;3.80;;
68315;SDS011;55508;54.368;18.406;2023-04-25T12:16:57;4.33;;;3.73;;
68315;SDS011;55508;54.368;18.406;2023-04-25T12:19:31;7.13;;;2.92;;
68315;SDS011;55508;54.368;18.406;2023-04-25T12:22:01;4.82;;;2.95;;
68315;SDS011;55508;54.368;18.406;2023-04-25T12:24:32;5.80;;;2.20;;
68315;SDS011;55508;54.368;18.406;2023-04-25T12:27:04;4.55;;;2.60;;
68315;SDS011;55508;54.368;18.406;2023-04-25T12:29:33;7.43;;;4.97;;
68315;SDS011;55508;54.368;18.406;2023-04-25T12:32:15;11.70;;;6.13;;
68315;SDS011;55508;54.368;18.406;2023-04-25T12:34:43;6.28;;;4.20;;
68315;SDS011;55508;54.368;18.406;2023-04-25T12:37:10;6.50;;;3.30;;
68315;SDS011;55508;54.368;18.406;2023-04-25T12:39:38;9.40;;;8.10;;
68315;SDS011;55508;54.368;18.406;2023-04-25T12:42:05;11.60;;;7.60;;
68315;SDS011;55508;54.368;18.406;2023-04-25T12:44:35;10.68;;;6.90;;
68315;SDS011;55508;54.368;18.406;2023-04-25T12:47:02;12.82;;;9.18;;
68315;SDS011;55508;54.368;18.406;2023-04-25T12:49:30;11.00;;;8.25;;
68315;SDS011;55508;54.368;18.406;2023-04-25T12:51:58;7.65;;;6.15;;
68315;SDS011;55508;54.368;18.406;2023-04-25T12:54:25;6.65;;;2.97;;
68315;SDS011;55508;54.368;18.406;2023-04-25T12:56:53;3.75;;;2.88;;
68315;SDS011;55508;54.368;18.406;2023-04-25T12:59:20;6.63;;;2.67;;
68315;SDS011;55508;54.368;18.406;2023-04-25T13:01:47;3.25;;;2.72;;
68315;SDS011;55508;54.368;18.406;2023-04-25T13:04:15;6.13;;;3.80;;
68315;SDS011;55508;54.368;18.406;2023-04-25T13:06:43;4.75;;;3.42;;
68315;SDS011;55508;54.368;18.406;2023-04-25T13:09:10;5.00;;;2.55;;
68315;SDS011;55508;54.368;18.406;2023-04-25T13:11:39;2.67;;;1.90;;
68315;SDS011;55508;54.368;18.406;2023-04-25T13:14:08;11.35;;;3.28;;
68315;SDS011;55508;54.368;18.406;2023-04-25T13:16:35;12.20;;;8.25;;
68315;SDS011;55508;54.368;18.406;2023-04-25T13:19:02;2.92;;;2.00;;
68315;SDS011;55508;54.368;18.406;2023-04-25T13:21:29;2.17;;;1.83;;
68315;SDS011;55508;54.368;18.406;2023-04-25T13:23:58;3.03;;;2.30;;
68315;SDS011;55508;54.368;18.406;2023-04-25T13:26:25;3.50;;;1.80;;
68315;SDS011;55508;54.368;18.406;2023-04-25T13:28:52;2.80;;;2.30;;
68315;SDS011;55508;54.368;18.406;2023-04-25T13:31:20;4.43;;;2.40;;
68315;SDS011;55508;54.368;18.406;2023-04-25T13:33:48;4.78;;;2.30;;
68315;SDS011;55508;54.368;18.406;2023-04-25T13:36:15;3.75;;;2.40;;
68315;SDS011;55508;54.368;18.406;2023-04-25T13:38:42;5.68;;;1.92;;
68315;SDS011;55508;54.368;18.406;2023-04-25T13:41:11;3.28;;;2.05;;
68315;SDS011;55508;54.368;18.406;2023-04-25T13:43:45;4.55;;;2.65;;
68315;SDS011;55508;54.368;18.406;2023-04-25T13:46:15;3.10;;;2.80;;
68315;SDS011;55508;54.368;18.406;2023-04-25T13:49:02;5.43;;;3.10;;
68315;SDS011;55508;54.368;18.406;2023-04-25T13:51:38;5.30;;;3.35;;
68315;SDS011;55508;54.368;18.406;2023-04-25T13:54:06;3.65;;;2.50;;
68315;SDS011;55508;54.368;18.406;2023-04-25T13:56:34;5.22;;;3.30;;
68315;SDS011;55508;54.368;18.406;2023-04-25T13:59:01;5.20;;;1.80;;
68315;SDS011;55508;54.368;18.406;2023-04-25T14:01:29;5.80;;;4.35;;
68315;SDS011;55508;54.368;18.406;2023-04-25T14:04:01;11.35;;;6.63;;
68315;SDS011;55508;54.368;18.406;2023-04-25T14:06:31;5.10;;;2.53;;
68315;SDS011;55508;54.368;18.406;2023-04-25T14:08:58;7.05;;;2.80;;
68315;SDS011;55508;54.368;18.406;2023-04-25T14:11:27;5.43;;;2.80;;
68315;SDS011;55508;54.368;18.406;2023-04-25T14:13:54;7.97;;;3.78;;
68315;SDS011;55508;54.368;18.406;2023-04-25T14:16:21;6.80;;;3.25;;
68315;SDS011;55508;54.368;18.406;2023-04-25T14:18:50;6.35;;;2.97;;
68315;SDS011;55508;54.368;18.406;2023-04-25T14:21:17;9.55;;;3.35;;
68315;SDS011;55508;54.368;18.406;2023-04-25T14:23:44;8.88;;;3.25;;
68315;SDS011;55508;54.368;18.406;2023-04-25T14:26:12;8.88;;;3.08;;
68315;SDS011;55508;54.368;18.406;2023-04-25T14:28:39;9.25;;;3.53;;
68315;SDS011;55508;54.368;18.406;2023-04-25T14:31:06;7.72;;;3.83;;
68315;SDS011;55508;54.368;18.406;2023-04-25T14:33:34;12.10;;;3.70;;
68315;SDS011;55508;54.368;18.406;2023-04-25T14:36:01;7.05;;;4.13;;
68315;SDS011;55508;54.368;18.406;2023-04-25T14:38:28;11.15;;;4.13;;
68315;SDS011;55508;54.368;18.406;2023-04-25T14:40:56;11.07;;;3.83;;
68315;SDS011;55508;54.368;18.406;2023-04-25T14:43:23;11.38;;;4.50;;
68315;SDS011;55508;54.368;18.406;2023-04-25T14:45:50;7.20;;;2.78;;
68315;SDS011;55508;54.368;18.406;2023-04-25T14:48:17;8.75;;;2.92;;
68315;SDS011;55508;54.368;18.406;2023-04-25T14:50:46;9.73;;;3.15;;
68315;SDS011;55508;54.368;18.406;2023-04-25T14:53:13;12.25;;;4.18;;
68315;SDS011;55508;54.368;18.406;2023-04-25T14:55:40;8.10;;;2.95;;
68315;SDS011;55508;54.368;18.406;2023-04-25T14:58:07;8.77;;;3.10;;
68315;SDS011;55508;54.368;18.406;2023-04-25T15:00:34;8.23;;;4.00;;
68315;SDS011;55508;54.368;18.406;2023-04-25T15:03:02;11.80;;;3.67;;
68315;SDS011;55508;54.368;18.406;2023-04-25T15:05:30;11.73;;;5.10;;
68315;SDS011;55508;54.368;18.406;2023-04-25T15:07:57;13.77;;;5.80;;